sensor_id;sensor_type;location;lat;lon;timestamp;pressure;altitude;pressure_sealevel;temperature;humidity
21879;BME280;27908;42.708;23.278;2024-01-07T00:01:26;49718.06;;;-136.69;94.23
21879;BME280;27908;42.708;23.278;2024-01-07T00:03:52;49712.16;;;-136.69;94.02
21879;BME280;27908;42.708;23.278;2024-01-07T00:06:17;49720.03;;;-136.69;94.09
21879;BME280;27908;42.708;23.278;2024-01-07T00:08:43;49702.31;;;-136.69;94.26
21879;BME280;27908;42.708;23.278;2024-01-07T00:11:09;49708.22;;;-136.69;94.11
21879;BME280;27908;42.708;23.278;2024-01-07T00:13:34;49706.25;;;-136.69;94.46
21879;BME280;27908;42.708;23.278;2024-01-07T00:15:59;49714.13;;;-136.69;93.46
21879;BME280;27908;42.708;23.278;2024-01-07T00:18:25;49710.19;;;-136.69;92.86
21879;BME280;27908;42.708;23.278;2024-01-07T00:20:52;49698.38;;;-136.69;92.69
21879;BME280;27908;42.708;23.278;2024-01-07T00:23:18;49672.78;;;-136.69;93.29
21879;BME280;27908;42.708;23.278;2024-01-07T00:25:43;49676.72;;;-136.69;92.71
21879;BME280;27908;42.708;23.278;2024-01-07T00:28:09;49729.88;;;-136.69;92.44
21879;BME280;27908;42.708;23.278;2024-01-07T00:30:35;49694.44;;;-136.69;91.76
21879;BME280;27908;42.708;23.278;2024-01-07T00:33:00;49698.38;;;-136.69;91.64
21879;BME280;27908;42.708;23.278;2024-01-07T00:35:26;49696.41;;;-136.69;91.25
21879;BME280;27908;42.708;23.278;2024-01-07T00:37:51;49672.78;;;-136.69;92.14
21879;BME280;27908;42.708;23.278;2024-01-07T00:40:17;49702.31;;;-136.69;92.69
21879;BME280;27908;42.708;23.278;2024-01-07T00:42:42;49698.38;;;-136.69;92.10
21879;BME280;27908;42.708;23.278;2024-01-07T00:45:08;49694.44;;;-136.69;92.23
21879;BME280;27908;42.708;23.278;2024-01-07T00:47:34;49686.56;;;-136.69;92.29
21879;BME280;27908;42.708;23.278;2024-01-07T00:49:59;49710.19;;;-136.69;92.43
21879;BME280;27908;42.708;23.278;2024-01-07T00:52:25;49690.50;;;-136.69;92.40
21879;BME280;27908;42.708;23.278;2024-01-07T00:54:50;49684.59;;;-136.69;93.05
21879;BME280;27908;42.708;23.278;2024-01-07T00:57:16;49678.69;;;-136.69;92.15
21879;BME280;27908;42.708;23.278;2024-01-07T00:59:41;49698.38;;;-136.69;92.54
21879;BME280;27908;42.708;23.278;2024-01-07T01:02:07;49694.44;;;-136.69;92.39
21879;BME280;27908;42.708;23.278;2024-01-07T01:04:32;49710.19;;;-136.69;92.63
21879;BME280;27908;42.708;23.278;2024-01-07T01:06:58;49706.25;;;-136.69;92.80
21879;BME280;27908;42.708;23.278;2024-01-07T01:09:23;49678.69;;;-136.69;92.82
21879;BME280;27908;42.708;23.278;2024-01-07T01:11:49;49686.56;;;-136.69;92.46
21879;BME280;27908;42.708;23.278;2024-01-07T01:14:15;49718.06;;;-136.69;91.88
21879;BME280;27908;42.708;23.278;2024-01-07T01:16:40;49690.50;;;-136.69;91.29
21879;BME280;27908;42.708;23.278;2024-01-07T01:19:06;49698.38;;;-136.69;91.07
21879;BME280;27908;42.708;23.278;2024-01-07T01:21:32;49696.41;;;-136.69;90.94
21879;BME280;27908;42.708;23.278;2024-01-07T01:23:57;49712.16;;;-136.69;90.79
21879;BME280;27908;42.708;23.278;2024-01-07T01:26:23;49694.44;;;-136.69;91.31
21879;BME280;27908;42.708;23.278;2024-01-07T01:28:48;49682.63;;;-136.69;91.40
21879;BME280;27908;42.708;23.278;2024-01-07T01:31:14;49690.50;;;-136.69;91.03
21879;BME280;27908;42.708;23.278;2024-01-07T01:33:40;49702.31;;;-136.69;91.40
21879;BME280;27908;42.708;23.278;2024-01-07T01:36:05;49704.28;;;-136.69;91.80
21879;BME280;27908;42.708;23.278;2024-01-07T01:38:31;49692.47;;;-136.69;92.20
21879;BME280;27908;42.708;23.278;2024-01-07T01:40:57;49706.25;;;-136.69;92.69
21879;BME280;27908;42.708;23.278;2024-01-07T01:43:24;49682.63;;;-136.69;93.22
21879;BME280;27908;42.708;23.278;2024-01-07T01:45:49;49680.66;;;-136.69;93.45
21879;BME280;27908;42.708;23.278;2024-01-07T01:48:15;49690.50;;;-136.69;94.36
21879;BME280;27908;42.708;23.278;2024-01-07T01:50:40;49716.09;;;-136.69;94.06
21879;BME280;27908;42.708;23.278;2024-01-07T01:53:06;49712.16;;;-136.69;94.80
21879;BME280;27908;42.708;23.278;2024-01-07T01:55:32;49692.47;;;-136.69;95.43
21879;BME280;27908;42.708;23.278;2024-01-07T01:57:58;49682.63;;;-136.69;95.36
21879;BME280;27908;42.708;23.278;2024-01-07T02:00:29;49688.53;;;-136.69;96.35
21879;BME280;27908;42.708;23.278;2024-01-07T02:02:54;49696.41;;;-136.69;96.00
21879;BME280;27908;42.708;23.278;2024-01-07T02:05:20;49684.59;;;-136.69;96.52
21879;BME280;27908;42.708;23.278;2024-01-07T02:07:46;49686.56;;;-136.69;96.70
21879;BME280;27908;42.708;23.278;2024-01-07T02:10:11;49716.09;;;-136.69;96.74
21879;BME280;27908;42.708;23.278;2024-01-07T02:12:38;49682.63;;;-136.69;97.48
21879;BME280;27908;42.708;23.278;2024-01-07T02:15:03;49710.19;;;-136.69;97.85
21879;BME280;27908;42.708;23.278;2024-01-07T02:17:29;49670.81;;;-136.69;97.97
21879;BME280;27908;42.708;23.278;2024-01-07T02:19:55;49722.00;;;-136.69;98.46
21879;BME280;27908;42.708;23.278;2024-01-07T02:22:20;49704.28;;;-136.69;98.73
21879;BME280;27908;42.708;23.278;2024-01-07T02:24:46;49694.44;;;-136.69;98.84
21879;BME280;27908;42.708;23.278;2024-01-07T02:27:11;49694.44;;;-136.69;99.49
21879;BME280;27908;42.708;23.278;2024-01-07T02:29:37;49700.34;;;-136.69;99.02
21879;BME280;27908;42.708;23.278;2024-01-07T02:32:03;49672.78;;;-136.69;98.81
21879;BME280;27908;42.708;23.278;2024-01-07T02:34:28;49706.25;;;-136.69;98.17
21879;BME280;27908;42.708;23.278;2024-01-07T02:36:54;49694.44;;;-136.69;98.17
21879;BME280;27908;42.708;23.278;2024-01-07T02:39:19;49696.41;;;-136.69;97.89
21879;BME280;27908;42.708;23.278;2024-01-07T02:41:45;49702.31;;;-136.69;98.56
21879;BME280;27908;42.708;23.278;2024-01-07T02:44:11;49702.31;;;-136.69;97.68
21879;BME280;27908;42.708;23.278;2024-01-07T02:46:36;49700.34;;;-136.69;96.80
21879;BME280;27908;42.708;23.278;2024-01-07T02:49:02;49706.25;;;-136.69;97.08
21879;BME280;27908;42.708;23.278;2024-01-07T02:51:27;49688.53;;;-136.69;97.51
21879;BME280;27908;42.708;23.278;2024-01-07T02:53:53;49698.38;;;-136.69;97.42
21879;BME280;27908;42.708;23.278;2024-01-07T02:56:18;49659.00;;;-136.69;97.04
21879;BME280;27908;42.708;23.278;2024-01-07T02:58:44;49708.22;;;-136.69;96.91
21879;BME280;27908;42.708;23.278;2024-01-07T03:01:09;49694.44;;;-136.69;97.32
21879;BME280;27908;42.708;23.278;2024-01-07T03:03:35;49712.16;;;-136.69;96.57
21879;BME280;27908;42.708;23.278;2024-01-07T03:06:01;49660.97;;;-136.69;97.21
21879;BME280;27908;42.708;23.278;2024-01-07T03:08:27;49700.34;;;-136.69;97.42
21879;BME280;27908;42.708;23.278;2024-01-07T03:10:53;49694.44;;;-136.69;98.02
21879;BME280;27908;42.708;23.278;2024-01-07T03:13:18;49686.56;;;-136.69;97.86
21879;BME280;27908;42.708;23.278;2024-01-07T03:15:44;49722.00;;;-136.69;99.05
21879;BME280;27908;42.708;23.278;2024-01-07T03:18:09;49729.88;;;-136.69;99.73
21879;BME280;27908;42.708;23.278;2024-01-07T03:20:35;49686.56;;;-136.69;99.63
21879;BME280;27908;42.708;23.278;2024-01-07T03:23:01;49702.31;;;-136.69;99.22
21879;BME280;27908;42.708;23.278;2024-01-07T03:25:27;49725.94;;;-136.69;99.44
21879;BME280;27908;42.708;23.278;2024-01-07T03:27:52;49698.38;;;-136.69;99.24
21879;BME280;27908;42.708;23.278;2024-01-07T03:30:18;49718.06;;;-136.69;99.28
21879;BME280;27908;42.708;23.278;2024-01-07T03:32:43;49710.19;;;-136.69;99.61
21879;BME280;27908;42.708;23.278;2024-01-07T03:35:09;49708.22;;;-136.69;100.00
21879;BME280;27908;42.708;23.278;2024-01-07T03:37:35;49712.16;;;-136.69;100.00
21879;BME280;27908;42.708;23.278;2024-01-07T03:40:00;49680.66;;;-136.69;100.00
21879;BME280;27908;42.708;23.278;2024-01-07T03:42:26;49716.09;;;-136.69;100.00
21879;BME280;27908;42.708;23.278;2024-01-07T03:44:51;49710.19;;;-136.69;100.00
21879;BME280;27908;42.708;23.278;2024-01-07T03:47:17;49710.19;;;-136.69;100.00
21879;BME280;27908;42.708;23.278;2024-01-07T03:49:42;49723.97;;;-136.69;100.00
21879;BME280;27908;42.708;23.278;2024-01-07T03:52:08;49733.81;;;-136.69;100.00
21879;BME280;27908;42.708;23.278;2024-01-07T03:54:34;49718.06;;;-136.69;100.00
21879;BME280;27908;42.708;23.278;2024-01-07T03:56:59;49718.06;;;-136.69;100.00
21879;BME280;27908;42.708;23.278;2024-01-07T03:59:25;49714.13;;;-136.69;99.73
21879;BME280;27908;42.708;23.278;2024-01-07T04:01:56;49702.31;;;-136.69;100.00
21879;BME280;27908;42.708;23.278;2024-01-07T04:04:22;49702.31;;;-136.69;100.00
21879;BME280;27908;42.708;23.278;2024-01-07T04:06:47;49747.59;;;-136.69;100.00
21879;BME280;27908;42.708;23.278;2024-01-07T04:09:13;49745.63;;;-136.69;100.00
21879;BME280;27908;42.708;23.278;2024-01-07T04:11:42;49725.94;;;-136.69;100.00
21879;BME280;27908;42.708;23.278;2024-01-07T04:14:08;49702.31;;;-136.69;100.00
21879;BME280;27908;42.708;23.278;2024-01-07T04:16:34;49733.81;;;-136.69;100.00
21879;BME280;27908;42.708;23.278;2024-01-07T04:19:00;49725.94;;;-136.69;100.00
21879;BME280;27908;42.708;23.278;2024-01-07T04:21:25;49723.97;;;-136.69;100.00
21879;BME280;27908;42.708;23.278;2024-01-07T04:23:51;49718.06;;;-136.69;100.00
21879;BME280;27908;42.708;23.278;2024-01-07T04:26:16;49739.72;;;-136.69;100.00
21879;BME280;27908;42.708;23.278;2024-01-07T04:28:42;49731.84;;;-136.69;100.00
21879;BME280;27908;42.708;23.278;2024-01-07T04:31:08;49749.56;;;-136.69;100.00
21879;BME280;27908;42.708;23.278;2024-01-07T04:33:35;49714.13;;;-136.69;100.00
21879;BME280;27908;42.708;23.278;2024-01-07T04:36:01;49718.06;;;-136.69;100.00
21879;BME280;27908;42.708;23.278;2024-01-07T04:38:27;49729.88;;;-136.69;100.00
21879;BME280;27908;42.708;23.278;2024-01-07T04:40:52;49735.78;;;-136.69;99.94
21879;BME280;27908;42.708;23.278;2024-01-07T04:43:19;49735.78;;;-136.69;99.96
21879;BME280;27908;42.708;23.278;2024-01-07T04:45:44;49737.75;;;-136.69;99.94
21879;BME280;27908;42.708;23.278;2024-01-07T04:48:10;49722.00;;;-136.69;100.00
21879;BME280;27908;42.708;23.278;2024-01-07T04:50:36;49741.69;;;-136.69;100.00
21879;BME280;27908;42.708;23.278;2024-01-07T04:53:01;49737.75;;;-136.69;99.61
21879;BME280;27908;42.708;23.278;2024-01-07T04:55:28;49706.25;;;-136.69;99.82
21879;BME280;27908;42.708;23.278;2024-01-07T04:57:53;49733.81;;;-136.69;99.73
21879;BME280;27908;42.708;23.278;2024-01-07T05:00:19;49749.56;;;-136.69;99.83
21879;BME280;27908;42.708;23.278;2024-01-07T05:02:44;49686.56;;;-136.69;100.00
21879;BME280;27908;42.708;23.278;2024-01-07T05:05:10;49716.09;;;-136.69;100.00
21879;BME280;27908;42.708;23.278;2024-01-07T05:07:37;49747.59;;;-136.69;100.00
21879;BME280;27908;42.708;23.278;2024-01-07T05:10:03;49739.72;;;-136.69;100.00
21879;BME280;27908;42.708;23.278;2024-01-07T05:12:29;49743.66;;;-136.69;100.00
21879;BME280;27908;42.708;23.278;2024-01-07T05:14:54;49725.94;;;-136.69;100.00
21879;BME280;27908;42.708;23.278;2024-01-07T05:17:20;49737.75;;;-136.69;100.00
21879;BME280;27908;42.708;23.278;2024-01-07T05:19:45;49725.94;;;-136.69;100.00
21879;BME280;27908;42.708;23.278;2024-01-07T05:22:11;49702.31;;;-136.69;100.00
21879;BME280;27908;42.708;23.278;2024-01-07T05:24:37;49722.00;;;-136.69;100.00
21879;BME280;27908;42.708;23.278;2024-01-07T05:27:04;49723.97;;;-136.69;100.00
21879;BME280;27908;42.708;23.278;2024-01-07T05:29:31;49727.91;;;-136.69;100.00
21879;BME280;27908;42.708;23.278;2024-01-07T05:31:56;49741.69;;;-136.69;100.00
21879;BME280;27908;42.708;23.278;2024-01-07T05:34:23;49688.53;;;-136.69;100.00
21879;BME280;27908;42.708;23.278;2024-01-07T05:36:48;49743.66;;;-136.69;100.00
21879;BME280;27908;42.708;23.278;2024-01-07T05:39:14;49725.94;;;-136.69;100.00
21879;BME280;27908;42.708;23.278;2024-01-07T05:41:40;49714.13;;;-136.69;100.00
21879;BME280;27908;42.708;23.278;2024-01-07T05:44:09;49712.16;;;-136.69;100.00
21879;BME280;27908;42.708;23.278;2024-01-07T05:46:37;49722.00;;;-136.69;100.00
21879;BME280;27908;42.708;23.278;2024-01-07T05:49:03;49718.06;;;-136.69;100.00
21879;BME280;27908;42.708;23.278;2024-01-07T05:51:28;49729.88;;;-136.69;100.00
21879;BME280;27908;42.708;23.278;2024-01-07T05:53:54;49710.19;;;-136.69;100.00
21879;BME280;27908;42.708;23.278;2024-01-07T05:56:19;49722.00;;;-136.69;100.00
21879;BME280;27908;42.708;23.278;2024-01-07T05:58:45;49757.44;;;-136.69;100.00
21879;BME280;27908;42.708;23.278;2024-01-07T06:01:20;49704.28;;;-136.69;100.00
21879;BME280;27908;42.708;23.278;2024-01-07T06:03:47;49702.31;;;-136.69;100.00
21879;BME280;27908;42.708;23.278;2024-01-07T06:06:18;49718.06;;;-136.69;100.00
21879;BME280;27908;42.708;23.278;2024-01-07T06:08:44;49712.16;;;-136.69;100.00
21879;BME280;27908;42.708;23.278;2024-01-07T06:11:09;49731.84;;;-136.69;100.00
21879;BME280;27908;42.708;23.278;2024-01-07T06:13:37;49716.09;;;-136.69;100.00
21879;BME280;27908;42.708;23.278;2024-01-07T06:16:03;49729.88;;;-136.69;100.00
21879;BME280;27908;42.708;23.278;2024-01-07T06:18:28;49720.03;;;-136.69;100.00
21879;BME280;27908;42.708;23.278;2024-01-07T06:20:54;49718.06;;;-136.69;100.00
21879;BME280;27908;42.708;23.278;2024-01-07T06:23:19;49727.91;;;-136.69;100.00
21879;BME280;27908;42.708;23.278;2024-01-07T06:25:44;49735.78;;;-136.69;100.00
21879;BME280;27908;42.708;23.278;2024-01-07T06:28:10;49739.72;;;-136.69;100.00
21879;BME280;27908;42.708;23.278;2024-01-07T06:30:36;49722.00;;;-136.69;100.00
21879;BME280;27908;42.708;23.278;2024-01-07T06:33:01;49706.25;;;-136.69;100.00
21879;BME280;27908;42.708;23.278;2024-01-07T06:35:27;49708.22;;;-136.69;100.00
21879;BME280;27908;42.708;23.278;2024-01-07T06:37:53;49702.31;;;-136.69;100.00
21879;BME280;27908;42.708;23.278;2024-01-07T06:40:18;49712.16;;;-136.69;100.00
21879;BME280;27908;42.708;23.278;2024-01-07T06:42:45;49720.03;;;-136.69;100.00
21879;BME280;27908;42.708;23.278;2024-01-07T06:45:10;49735.78;;;-136.69;100.00
21879;BME280;27908;42.708;23.278;2024-01-07T06:47:36;49729.88;;;-136.69;100.00
21879;BME280;27908;42.708;23.278;2024-01-07T06:50:01;49739.72;;;-136.69;100.00
21879;BME280;27908;42.708;23.278;2024-01-07T06:52:27;49708.22;;;-136.69;100.00
21879;BME280;27908;42.708;23.278;2024-01-07T06:54:52;49716.09;;;-136.69;100.00
21879;BME280;27908;42.708;23.278;2024-01-07T06:57:18;49741.69;;;-136.69;100.00
21879;BME280;27908;42.708;23.278;2024-01-07T06:59:43;49716.09;;;-136.69;100.00
21879;BME280;27908;42.708;23.278;2024-01-07T07:02:09;49720.03;;;-136.69;100.00
21879;BME280;27908;42.708;23.278;2024-01-07T07:04:34;49739.72;;;-136.69;100.00
21879;BME280;27908;42.708;23.278;2024-01-07T07:07:00;49729.88;;;-136.69;100.00
21879;BME280;27908;42.708;23.278;2024-01-07T07:09:25;49731.84;;;-136.69;100.00
21879;BME280;27908;42.708;23.278;2024-01-07T07:11:51;49779.09;;;-136.69;100.00
21879;BME280;27908;42.708;23.278;2024-01-07T07:14:16;49723.97;;;-136.69;100.00
21879;BME280;27908;42.708;23.278;2024-01-07T07:16:42;49704.28;;;-136.69;100.00
21879;BME280;27908;42.708;23.278;2024-01-07T07:19:07;49783.03;;;-136.69;100.00
21879;BME280;27908;42.708;23.278;2024-01-07T07:21:33;49749.56;;;-136.69;100.00
21879;BME280;27908;42.708;23.278;2024-01-07T07:23:58;49727.91;;;-136.69;100.00
21879;BME280;27908;42.708;23.278;2024-01-07T07:26:24;49722.00;;;-136.69;100.00
21879;BME280;27908;42.708;23.278;2024-01-07T07:28:49;49722.00;;;-136.69;100.00
21879;BME280;27908;42.708;23.278;2024-01-07T07:31:15;49716.09;;;-136.69;100.00
21879;BME280;27908;42.708;23.278;2024-01-07T07:33:40;49716.09;;;-136.69;100.00
21879;BME280;27908;42.708;23.278;2024-01-07T07:36:06;49727.91;;;-136.69;100.00
21879;BME280;27908;42.708;23.278;2024-01-07T07:38:32;49720.03;;;-136.69;100.00
21879;BME280;27908;42.708;23.278;2024-01-07T07:40:58;49712.16;;;-136.69;100.00
21879;BME280;27908;42.708;23.278;2024-01-07T07:43:24;49749.56;;;-136.69;100.00
21879;BME280;27908;42.708;23.278;2024-01-07T07:45:50;49745.63;;;-136.69;100.00
21879;BME280;27908;42.708;23.278;2024-01-07T07:48:16;49718.06;;;-136.69;100.00
21879;BME280;27908;42.708;23.278;2024-01-07T07:50:42;49729.88;;;-136.69;100.00
21879;BME280;27908;42.708;23.278;2024-01-07T07:53:07;49725.94;;;-136.69;100.00
21879;BME280;27908;42.708;23.278;2024-01-07T07:55:33;49741.69;;;-136.69;100.00
21879;BME280;27908;42.708;23.278;2024-01-07T07:57:58;49773.19;;;-136.69;100.00
21879;BME280;27908;42.708;23.278;2024-01-07T08:00:24;49735.78;;;-136.69;100.00
21879;BME280;27908;42.708;23.278;2024-01-07T08:02:49;49733.81;;;-136.69;100.00
21879;BME280;27908;42.708;23.278;2024-01-07T08:05:15;49747.59;;;-136.69;100.00
21879;BME280;27908;42.708;23.278;2024-01-07T08:07:40;49869.69;;;-136.69;100.00
21879;BME280;27908;42.708;23.278;2024-01-07T08:10:07;49749.56;;;-136.69;99.52
21879;BME280;27908;42.708;23.278;2024-01-07T08:12:33;49755.47;;;-136.69;97.44
21879;BME280;27908;42.708;23.278;2024-01-07T08:14:59;49743.66;;;-136.69;95.89
21879;BME280;27908;42.708;23.278;2024-01-07T08:17:24;49731.84;;;-136.69;95.50
21879;BME280;27908;42.708;23.278;2024-01-07T08:19:50;49751.53;;;-136.69;93.22
21879;BME280;27908;42.708;23.278;2024-01-07T08:22:15;49771.22;;;-136.69;93.50
21879;BME280;27908;42.708;23.278;2024-01-07T08:24:41;49759.41;;;-136.69;93.72
21879;BME280;27908;42.708;23.278;2024-01-07T08:27:08;49741.69;;;-136.69;92.37
21879;BME280;27908;42.708;23.278;2024-01-07T08:29:33;49737.75;;;-136.69;92.94
21879;BME280;27908;42.708;23.278;2024-01-07T08:31:59;49753.50;;;-136.69;91.43
21879;BME280;27908;42.708;23.278;2024-01-07T08:34:24;49753.50;;;-136.69;91.67
21879;BME280;27908;42.708;23.278;2024-01-07T08:36:50;49796.81;;;-136.69;90.17
21879;BME280;27908;42.708;23.278;2024-01-07T08:39:15;49741.69;;;-136.69;90.48
21879;BME280;27908;42.708;23.278;2024-01-07T08:41:41;49759.41;;;-136.69;90.50
21879;BME280;27908;42.708;23.278;2024-01-07T08:44:07;49773.19;;;-136.69;91.54
21879;BME280;27908;42.708;23.278;2024-01-07T08:46:34;49753.50;;;-136.69;91.23
21879;BME280;27908;42.708;23.278;2024-01-07T08:48:59;49755.47;;;-136.69;91.64
21879;BME280;27908;42.708;23.278;2024-01-07T08:51:25;49751.53;;;-136.69;88.86
21879;BME280;27908;42.708;23.278;2024-01-07T08:53:50;49767.28;;;-136.69;89.52
21879;BME280;27908;42.708;23.278;2024-01-07T08:56:16;49808.63;;;-136.69;89.56
21879;BME280;27908;42.708;23.278;2024-01-07T08:58:41;49757.44;;;-136.69;89.60
21879;BME280;27908;42.708;23.278;2024-01-07T09:01:07;49771.22;;;-136.69;89.05
21879;BME280;27908;42.708;23.278;2024-01-07T09:03:33;49786.97;;;-136.69;87.17
21879;BME280;27908;42.708;23.278;2024-01-07T09:05:59;49785.00;;;-136.69;86.16
21879;BME280;27908;42.708;23.278;2024-01-07T09:08:24;49763.34;;;-136.69;85.05
21879;BME280;27908;42.708;23.278;2024-01-07T09:10:49;49763.34;;;-136.69;84.98
21879;BME280;27908;42.708;23.278;2024-01-07T09:13:16;49773.19;;;-136.69;82.87
21879;BME280;27908;42.708;23.278;2024-01-07T09:15:41;49810.59;;;-136.69;83.19
21879;BME280;27908;42.708;23.278;2024-01-07T09:18:07;49806.66;;;-136.69;82.67
21879;BME280;27908;42.708;23.278;2024-01-07T09:20:32;49788.94;;;-136.69;83.10
21879;BME280;27908;42.708;23.278;2024-01-07T09:22:59;49808.63;;;-136.69;81.94
21879;BME280;27908;42.708;23.278;2024-01-07T09:25:24;49816.50;;;-136.69;81.54
21879;BME280;27908;42.708;23.278;2024-01-07T09:27:51;49796.81;;;-136.69;80.99
21879;BME280;27908;42.708;23.278;2024-01-07T09:30:17;49779.09;;;-136.69;80.01
21879;BME280;27908;42.708;23.278;2024-01-07T09:32:43;49775.16;;;-136.69;77.94
21879;BME280;27908;42.708;23.278;2024-01-07T09:35:09;49816.50;;;-136.69;77.94
21879;BME280;27908;42.708;23.278;2024-01-07T09:37:35;49802.72;;;-136.69;75.67
21879;BME280;27908;42.708;23.278;2024-01-07T09:40:03;49814.53;;;-136.69;76.58
21879;BME280;27908;42.708;23.278;2024-01-07T09:42:32;49812.56;;;-136.69;74.52
21879;BME280;27908;42.708;23.278;2024-01-07T09:45:01;49806.66;;;-136.69;73.65
21879;BME280;27908;42.708;23.278;2024-01-07T09:47:31;49838.16;;;-136.69;70.51
21879;BME280;27908;42.708;23.278;2024-01-07T09:49:56;49836.19;;;-136.69;70.50
21879;BME280;27908;42.708;23.278;2024-01-07T09:52:22;49828.31;;;-136.69;68.10
21879;BME280;27908;42.708;23.278;2024-01-07T09:54:51;49875.59;;;-136.69;67.42
21879;BME280;27908;42.708;23.278;2024-01-07T09:57:18;49863.78;;;-136.69;67.91
21879;BME280;27908;42.708;23.278;2024-01-07T09:59:45;49891.34;;;-136.69;65.59
21879;BME280;27908;42.708;23.278;2024-01-07T10:02:11;49869.69;;;-136.69;64.08
21879;BME280;27908;42.708;23.278;2024-01-07T10:04:37;49885.44;;;-136.69;62.40
21879;BME280;27908;42.708;23.278;2024-01-07T10:07:02;49895.28;;;-136.69;61.83
21879;BME280;27908;42.708;23.278;2024-01-07T10:09:29;49871.66;;;-136.69;59.37
21879;BME280;27908;42.708;23.278;2024-01-07T10:11:55;49879.53;;;-136.69;59.76
21879;BME280;27908;42.708;23.278;2024-01-07T10:14:21;49907.09;;;-136.69;59.98
21879;BME280;27908;42.708;23.278;2024-01-07T10:16:52;49897.25;;;-136.69;58.65
21879;BME280;27908;42.708;23.278;2024-01-07T10:19:22;49861.81;;;-136.69;55.18
21879;BME280;27908;42.708;23.278;2024-01-07T10:24:26;49840.16;;;-136.69;57.17
21879;BME280;27908;42.708;23.278;2024-01-07T10:26:52;49853.94;;;-136.69;58.40
21879;BME280;27908;42.708;23.278;2024-01-07T10:29:18;49867.72;;;-136.69;57.52
21879;BME280;27908;42.708;23.278;2024-01-07T10:31:43;49881.50;;;-136.69;56.81
21879;BME280;27908;42.708;23.278;2024-01-07T10:34:09;49867.72;;;-136.69;53.23
21879;BME280;27908;42.708;23.278;2024-01-07T10:36:36;49885.44;;;-136.69;53.97
21879;BME280;27908;42.708;23.278;2024-01-07T10:39:02;49853.94;;;-136.69;52.40
21879;BME280;27908;42.708;23.278;2024-01-07T10:41:28;49848.03;;;-136.69;53.22
21879;BME280;27908;42.708;23.278;2024-01-07T10:43:57;49873.63;;;-136.69;53.66
21879;BME280;27908;42.708;23.278;2024-01-07T10:46:23;49889.38;;;-136.69;53.11
21879;BME280;27908;42.708;23.278;2024-01-07T10:48:59;49844.09;;;-136.69;53.70
21879;BME280;27908;42.708;23.278;2024-01-07T10:51:28;49859.84;;;-136.69;53.10
21879;BME280;27908;42.708;23.278;2024-01-07T10:53:56;49802.72;;;-136.69;52.56
21879;BME280;27908;42.708;23.278;2024-01-07T10:56:25;49828.31;;;-136.69;53.37
21879;BME280;27908;42.708;23.278;2024-01-07T10:58:56;49853.94;;;-136.69;53.38
21879;BME280;27908;42.708;23.278;2024-01-07T11:01:22;49863.78;;;-136.69;52.67
21879;BME280;27908;42.708;23.278;2024-01-07T11:06:33;49861.81;;;-136.69;51.93
21879;BME280;27908;42.708;23.278;2024-01-07T11:09:12;49897.25;;;-136.69;52.63
21879;BME280;27908;42.708;23.278;2024-01-07T11:11:42;49879.53;;;-136.69;51.21
21879;BME280;27908;42.708;23.278;2024-01-07T11:14:43;49879.53;;;-136.69;50.84
21879;BME280;27908;42.708;23.278;2024-01-07T11:20:21;49893.31;;;-136.69;51.86
21879;BME280;27908;42.708;23.278;2024-01-07T11:22:48;49895.28;;;-136.69;52.79
21879;BME280;27908;42.708;23.278;2024-01-07T11:25:31;49899.22;;;-136.69;53.08
21879;BME280;27908;42.708;23.278;2024-01-07T11:27:58;49893.31;;;-136.69;52.86
21879;BME280;27908;42.708;23.278;2024-01-07T11:30:24;49928.75;;;-136.69;51.57
21879;BME280;27908;42.708;23.278;2024-01-07T11:32:57;49940.56;;;-136.69;51.08
21879;BME280;27908;42.708;23.278;2024-01-07T11:36:01;49936.63;;;-136.69;51.36
21879;BME280;27908;42.708;23.278;2024-01-07T11:38:27;49938.59;;;-136.69;51.98
21879;BME280;27908;42.708;23.278;2024-01-07T11:40:54;49924.81;;;-136.69;51.92
21879;BME280;27908;42.708;23.278;2024-01-07T11:43:21;49922.84;;;-136.69;52.53
21879;BME280;27908;42.708;23.278;2024-01-07T11:45:49;49952.38;;;-136.69;52.53
21879;BME280;27908;42.708;23.278;2024-01-07T11:48:14;49928.75;;;-136.69;52.32
21879;BME280;27908;42.708;23.278;2024-01-07T11:50:41;49909.06;;;-136.69;53.00
21879;BME280;27908;42.708;23.278;2024-01-07T11:53:07;49940.56;;;-136.69;52.83
21879;BME280;27908;42.708;23.278;2024-01-07T11:55:33;49905.13;;;-136.69;52.54
21879;BME280;27908;42.708;23.278;2024-01-07T11:58:01;49920.88;;;-136.69;52.74
21879;BME280;27908;42.708;23.278;2024-01-07T12:00:31;49903.16;;;-136.69;52.54
21879;BME280;27908;42.708;23.278;2024-01-07T12:02:56;49909.06;;;-136.69;52.26
21879;BME280;27908;42.708;23.278;2024-01-07T12:05:22;49905.13;;;-136.69;52.94
21879;BME280;27908;42.708;23.278;2024-01-07T12:07:47;49934.66;;;-136.69;52.70
21879;BME280;27908;42.708;23.278;2024-01-07T12:10:13;49911.03;;;-136.69;52.38
21879;BME280;27908;42.708;23.278;2024-01-07T12:12:42;49889.38;;;-136.69;53.26
21879;BME280;27908;42.708;23.278;2024-01-07T12:15:08;49891.34;;;-136.69;53.89
21879;BME280;27908;42.708;23.278;2024-01-07T12:17:34;49907.09;;;-136.69;54.17
21879;BME280;27908;42.708;23.278;2024-01-07T12:20:03;49909.06;;;-136.69;53.96
21879;BME280;27908;42.708;23.278;2024-01-07T12:22:30;49865.75;;;-136.69;54.08
21879;BME280;27908;42.708;23.278;2024-01-07T12:25:06;49861.81;;;-136.69;54.23
21879;BME280;27908;42.708;23.278;2024-01-07T12:27:33;49867.72;;;-136.69;54.83
21879;BME280;27908;42.708;23.278;2024-01-07T12:29:59;49842.13;;;-136.69;55.30